sensor_id;sensor_type;location;lat;lon;timestamp;temperature;humidity
24091;DHT22;12272;52.426;17.100;2023-04-29T00:00:32;10.30;95.60
24091;DHT22;12272;52.426;17.100;2023-04-29T00:05:35;10.40;96.70
24091;DHT22;12272;52.426;17.100;2023-04-29T00:10:38;10.40;96.70
24091;DHT22;12272;52.426;17.100;2023-04-29T00:15:41;10.30;97.50
24091;DHT22;12272;52.426;17.100;2023-04-29T00:20:44;10.30;97.30
24091;DHT22;12272;52.426;17.100;2023-04-29T00:25:47;10.40;98.30
24091;DHT22;12272;52.426;17.100;2023-04-29T00:30:49;10.20;97.40
24091;DHT22;12272;52.426;17.100;2023-04-29T00:35:52;9.90;98.00
24091;DHT22;12272;52.426;17.100;2023-04-29T00:40:55;9.70;98.80
24091;DHT22;12272;52.426;17.100;2023-04-29T00:45:58;9.90;99.90
24091;DHT22;12272;52.426;17.100;2023-04-29T00:51:01;10.20;99.90
24091;DHT22;12272;52.426;17.100;2023-04-29T00:56:05;10.00;99.20
24091;DHT22;12272;52.426;17.100;2023-04-29T01:01:09;10.00;99.30
24091;DHT22;12272;52.426;17.100;2023-04-29T01:11:22;9.60;99.50
24091;DHT22;12272;52.426;17.100;2023-04-29T01:16:51;9.60;99.80
24091;DHT22;12272;52.426;17.100;2023-04-29T01:21:54;9.50;99.90
24091;DHT22;12272;52.426;17.100;2023-04-29T01:27:04;9.60;99.90
24091;DHT22;12272;52.426;17.100;2023-04-29T01:32:40;9.50;99.90
24091;DHT22;12272;52.426;17.100;2023-04-29T01:38:09;9.50;99.90
24091;DHT22;12272;52.426;17.100;2023-04-29T01:43:14;9.60;99.90
24091;DHT22;12272;52.426;17.100;2023-04-29T01:48:22;9.70;99.90
24091;DHT22;12272;52.426;17.100;2023-04-29T01:53:24;9.60;99.90
24091;DHT22;12272;52.426;17.100;2023-04-29T01:58:27;9.70;99.90
24091;DHT22;12272;52.426;17.100;2023-04-29T02:04:07;9.90;99.90
24091;DHT22;12272;52.426;17.100;2023-04-29T02:09:11;10.30;99.90
24091;DHT22;12272;52.426;17.100;2023-04-29T02:14:22;10.30;99.90
24091;DHT22;12272;52.426;17.100;2023-04-29T02:19:25;10.20;99.90
24091;DHT22;12272;52.426;17.100;2023-04-29T02:24:30;10.30;99.90
24091;DHT22;12272;52.426;17.100;2023-04-29T02:29:33;10.20;99.90
24091;DHT22;12272;52.426;17.100;2023-04-29T02:34:35;10.10;99.90
24091;DHT22;12272;52.426;17.100;2023-04-29T02:39:38;10.30;99.90
24091;DHT22;12272;52.426;17.100;2023-04-29T02:44:40;10.20;99.90
24091;DHT22;12272;52.426;17.100;2023-04-29T02:49:43;9.90;99.90
24091;DHT22;12272;52.426;17.100;2023-04-29T02:54:46;10.00;99.90
24091;DHT22;12272;52.426;17.100;2023-04-29T02:59:49;9.90;99.90
24091;DHT22;12272;52.426;17.100;2023-04-29T03:04:51;10.00;99.90
24091;DHT22;12272;52.426;17.100;2023-04-29T03:09:55;10.20;99.90
24091;DHT22;12272;52.426;17.100;2023-04-29T03:14:58;10.30;99.90
24091;DHT22;12272;52.426;17.100;2023-04-29T03:20:00;10.20;99.90
24091;DHT22;12272;52.426;17.100;2023-04-29T03:25:04;10.00;99.90
24091;DHT22;12272;52.426;17.100;2023-04-29T03:30:08;10.20;99.90
24091;DHT22;12272;52.426;17.100;2023-04-29T03:35:19;10.40;99.90
24091;DHT22;12272;52.426;17.100;2023-04-29T03:40:47;10.40;99.90
24091;DHT22;12272;52.426;17.100;2023-04-29T03:45:51;10.00;99.90
24091;DHT22;12272;52.426;17.100;2023-04-29T03:50:58;9.60;99.90
24091;DHT22;12272;52.426;17.100;2023-04-29T03:56:02;9.50;99.90
24091;DHT22;12272;52.426;17.100;2023-04-29T04:01:04;9.40;99.90
24091;DHT22;12272;52.426;17.100;2023-04-29T04:06:17;9.60;99.90
24091;DHT22;12272;52.426;17.100;2023-04-29T04:11:21;9.80;99.90
24091;DHT22;12272;52.426;17.100;2023-04-29T04:16:33;10.00;99.90
24091;DHT22;12272;52.426;17.100;2023-04-29T04:21:36;9.90;99.90
24091;DHT22;12272;52.426;17.100;2023-04-29T04:26:42;10.00;99.90
24091;DHT22;12272;52.426;17.100;2023-04-29T04:32:11;10.10;99.90
24091;DHT22;12272;52.426;17.100;2023-04-29T04:37:14;10.00;99.90
24091;DHT22;12272;52.426;17.100;2023-04-29T04:42:22;10.00;99.90
24091;DHT22;12272;52.426;17.100;2023-04-29T04:47:26;10.10;99.90
24091;DHT22;12272;52.426;17.100;2023-04-29T04:52:39;10.30;99.90
24091;DHT22;12272;52.426;17.100;2023-04-29T04:58:05;10.40;99.90
24091;DHT22;12272;52.426;17.100;2023-04-29T05:03:08;10.60;99.90
24091;DHT22;12272;52.426;17.100;2023-04-29T05:08:11;10.80;99.90
24091;DHT22;12272;52.426;17.100;2023-04-29T05:13:19;11.10;99.90
24091;DHT22;12272;52.426;17.100;2023-04-29T05:18:22;11.20;99.90
24091;DHT22;12272;52.426;17.100;2023-04-29T05:23:26;11.30;99.90
24091;DHT22;12272;52.426;17.100;2023-04-29T05:28:29;11.30;99.90
24091;DHT22;12272;52.426;17.100;2023-04-29T05:33:32;11.30;99.90
24091;DHT22;12272;52.426;17.100;2023-04-29T05:38:35;11.50;99.90
24091;DHT22;12272;52.426;17.100;2023-04-29T05:43:39;11.60;99.90
24091;DHT22;12272;52.426;17.100;2023-04-29T05:48:42;11.90;99.90
24091;DHT22;12272;52.426;17.100;2023-04-29T05:53:46;12.10;99.90
24091;DHT22;12272;52.426;17.100;2023-04-29T05:58:48;12.70;99.90
24091;DHT22;12272;52.426;17.100;2023-04-29T06:03:52;12.70;99.90
24091;DHT22;12272;52.426;17.100;2023-04-29T06:09:11;12.90;99.90
24091;DHT22;12272;52.426;17.100;2023-04-29T06:14:30;13.20;99.90
24091;DHT22;12272;52.426;17.100;2023-04-29T06:19:33;13.30;99.00
24091;DHT22;12272;52.426;17.100;2023-04-29T06:24:36;13.40;98.80
24091;DHT22;12272;52.426;17.100;2023-04-29T06:29:39;13.60;97.50
24091;DHT22;12272;52.426;17.100;2023-04-29T06:34:42;13.50;97.70
24091;DHT22;12272;52.426;17.100;2023-04-29T06:40:06;13.60;96.90
24091;DHT22;12272;52.426;17.100;2023-04-29T06:45:38;13.80;97.20
24091;DHT22;12272;52.426;17.100;2023-04-29T06:50:55;13.90;96.10
24091;DHT22;12272;52.426;17.100;2023-04-29T06:55:58;14.10;96.20
24091;DHT22;12272;52.426;17.100;2023-04-29T07:01:00;14.10;95.90
24091;DHT22;12272;52.426;17.100;2023-04-29T07:06:05;14.20;95.50
24091;DHT22;12272;52.426;17.100;2023-04-29T07:11:08;14.30;95.20
24091;DHT22;12272;52.426;17.100;2023-04-29T07:16:17;14.40;95.50
24091;DHT22;12272;52.426;17.100;2023-04-29T07:26:26;14.70;95.30
24091;DHT22;12272;52.426;17.100;2023-04-29T07:31:28;14.80;94.90
24091;DHT22;12272;52.426;17.100;2023-04-29T07:36:31;14.90;93.60
24091;DHT22;12272;52.426;17.100;2023-04-29T07:41:34;14.90;93.50
24091;DHT22;12272;52.426;17.100;2023-04-29T07:46:37;15.10;93.00
24091;DHT22;12272;52.426;17.100;2023-04-29T07:51:43;15.20;92.50
24091;DHT22;12272;52.426;17.100;2023-04-29T07:56:45;15.20;92.80
24091;DHT22;12272;52.426;17.100;2023-04-29T08:01:48;15.10;92.50
24091;DHT22;12272;52.426;17.100;2023-04-29T08:06:50;15.00;93.10
24091;DHT22;12272;52.426;17.100;2023-04-29T08:11:53;14.90;93.50
24091;DHT22;12272;52.426;17.100;2023-04-29T08:16:56;14.80;93.90
24091;DHT22;12272;52.426;17.100;2023-04-29T08:21:58;14.90;93.40
24091;DHT22;12272;52.426;17.100;2023-04-29T08:27:02;15.00;93.50
24091;DHT22;12272;52.426;17.100;2023-04-29T08:32:05;15.00;93.70
24091;DHT22;12272;52.426;17.100;2023-04-29T08:37:08;15.20;92.70
24091;DHT22;12272;52.426;17.100;2023-04-29T08:42:11;15.50;92.60
24091;DHT22;12272;52.426;17.100;2023-04-29T08:47:14;16.10;92.20
24091;DHT22;12272;52.426;17.100;2023-04-29T08:52:17;15.50;93.40
24091;DHT22;12272;52.426;17.100;2023-04-29T08:57:20;16.60;90.20
24091;DHT22;12272;52.426;17.100;2023-04-29T09:02:24;16.80;88.30
24091;DHT22;12272;52.426;17.100;2023-04-29T09:07:27;16.80;85.30
24091;DHT22;12272;52.426;17.100;2023-04-29T09:12:30;16.80;83.50
24091;DHT22;12272;52.426;17.100;2023-04-29T09:17:41;16.60;83.50
24091;DHT22;12272;52.426;17.100;2023-04-29T09:22:52;16.70;85.40
24091;DHT22;12272;52.426;17.100;2023-04-29T09:27:55;17.10;85.30
24091;DHT22;12272;52.426;17.100;2023-04-29T09:33:08;17.40;81.70
24091;DHT22;12272;52.426;17.100;2023-04-29T09:38:15;17.40;81.80
24091;DHT22;12272;52.426;17.100;2023-04-29T09:43:17;17.50;80.50
24091;DHT22;12272;52.426;17.100;2023-04-29T09:48:20;17.60;78.40
24091;DHT22;12272;52.426;17.100;2023-04-29T09:53:28;18.10;76.90
24091;DHT22;12272;52.426;17.100;2023-04-29T09:58:33;18.10;77.70
24091;DHT22;12272;52.426;17.100;2023-04-29T10:03:40;18.20;73.40
24091;DHT22;12272;52.426;17.100;2023-04-29T10:08:45;18.30;73.60
24091;DHT22;12272;52.426;17.100;2023-04-29T10:13:50;18.40;73.10
24091;DHT22;12272;52.426;17.100;2023-04-29T10:18:55;18.40;71.80
24091;DHT22;12272;52.426;17.100;2023-04-29T10:23:58;18.40;72.10
24091;DHT22;12272;52.426;17.100;2023-04-29T10:29:01;18.60;69.30
24091;DHT22;12272;52.426;17.100;2023-04-29T10:34:04;18.60;68.90
24091;DHT22;12272;52.426;17.100;2023-04-29T10:39:15;18.60;67.80
24091;DHT22;12272;52.426;17.100;2023-04-29T10:44:21;18.40;68.00
24091;DHT22;12272;52.426;17.100;2023-04-29T10:49:33;18.30;70.20
24091;DHT22;12272;52.426;17.100;2023-04-29T10:54:35;18.40;68.30
24091;DHT22;12272;52.426;17.100;2023-04-29T11:05:06;18.60;67.40
24091;DHT22;12272;52.426;17.100;2023-04-29T11:10:12;18.60;66.70
24091;DHT22;12272;52.426;17.100;2023-04-29T11:15:17;18.90;65.10
24091;DHT22;12272;52.426;17.100;2023-04-29T11:20:19;18.90;65.00
24091;DHT22;12272;52.426;17.100;2023-04-29T11:25:24;19.00;69.50
24091;DHT22;12272;52.426;17.100;2023-04-29T11:30:27;19.00;67.60
24091;DHT22;12272;52.426;17.100;2023-04-29T11:35:31;19.20;67.90
24091;DHT22;12272;52.426;17.100;2023-04-29T11:40:33;19.30;65.30
24091;DHT22;12272;52.426;17.100;2023-04-29T11:45:36;19.40;67.50
24091;DHT22;12272;52.426;17.100;2023-04-29T11:50:41;19.60;67.40
24091;DHT22;12272;52.426;17.100;2023-04-29T11:55:44;19.50;64.00
24091;DHT22;12272;52.426;17.100;2023-04-29T12:00:47;19.60;67.80
24091;DHT22;12272;52.426;17.100;2023-04-29T12:05:51;19.70;69.30
24091;DHT22;12272;52.426;17.100;2023-04-29T12:10:56;19.80;65.70
24091;DHT22;12272;52.426;17.100;2023-04-29T12:15:59;20.00;65.10
24091;DHT22;12272;52.426;17.100;2023-04-29T12:21:01;20.00;62.30
24091;DHT22;12272;52.426;17.100;2023-04-29T12:26:04;19.90;61.30
24091;DHT22;12272;52.426;17.100;2023-04-29T12:31:08;19.90;62.90
24091;DHT22;12272;52.426;17.100;2023-04-29T12:36:18;20.00;61.80
24091;DHT22;12272;52.426;17.100;2023-04-29T12:41:38;20.10;60.60
24091;DHT22;12272;52.426;17.100;2023-04-29T12:46:41;20.00;62.60
24091;DHT22;12272;52.426;17.100;2023-04-29T12:51:44;20.00;65.80
24091;DHT22;12272;52.426;17.100;2023-04-29T12:56:47;20.10;64.40
24091;DHT22;12272;52.426;17.100;2023-04-29T13:01:51;20.00;64.60
24091;DHT22;12272;52.426;17.100;2023-04-29T13:06:53;19.90;60.30
24091;DHT22;12272;52.426;17.100;2023-04-29T13:12:01;19.60;59.20
24091;DHT22;12272;52.426;17.100;2023-04-29T13:17:04;19.30;64.80
24091;DHT22;12272;52.426;17.100;2023-04-29T13:22:07;19.00;66.90
24091;DHT22;12272;52.426;17.100;2023-04-29T13:27:10;18.80;72.60
24091;DHT22;12272;52.426;17.100;2023-04-29T13:32:13;18.60;80.70
24091;DHT22;12272;52.426;17.100;2023-04-29T13:37:19;18.50;83.00
24091;DHT22;12272;52.426;17.100;2023-04-29T13:42:22;18.40;87.70
24091;DHT22;12272;52.426;17.100;2023-04-29T13:47:28;18.20;86.60
24091;DHT22;12272;52.426;17.100;2023-04-29T13:52:32;17.80;87.10
24091;DHT22;12272;52.426;17.100;2023-04-29T13:57:38;17.50;88.70
24091;DHT22;12272;52.426;17.100;2023-04-29T14:03:00;17.30;94.40
24091;DHT22;12272;52.426;17.100;2023-04-29T14:08:03;17.00;98.90
24091;DHT22;12272;52.426;17.100;2023-04-29T14:13:06;16.90;99.90
24091;DHT22;12272;52.426;17.100;2023-04-29T14:18:08;16.80;99.90
24091;DHT22;12272;52.426;17.100;2023-04-29T14:23:12;16.70;99.90
24091;DHT22;12272;52.426;17.100;2023-04-29T14:28:15;16.40;95.50
24091;DHT22;12272;52.426;17.100;2023-04-29T14:33:17;16.30;95.10
24091;DHT22;12272;52.426;17.100;2023-04-29T14:38:21;16.30;94.50
24091;DHT22;12272;52.426;17.100;2023-04-29T14:43:23;15.90;96.70
24091;DHT22;12272;52.426;17.100;2023-04-29T14:48:26;15.60;99.90
24091;DHT22;12272;52.426;17.100;2023-04-29T14:53:29;15.30;99.90
24091;DHT22;12272;52.426;17.100;2023-04-29T14:58:32;14.90;99.90
24091;DHT22;12272;52.426;17.100;2023-04-29T15:03:35;14.70;99.90
24091;DHT22;12272;52.426;17.100;2023-04-29T15:08:45;14.50;99.90
24091;DHT22;12272;52.426;17.100;2023-04-29T15:13:49;14.40;99.90
24091;DHT22;12272;52.426;17.100;2023-04-29T15:18:51;14.40;99.90
24091;DHT22;12272;52.426;17.100;2023-04-29T15:23:54;14.50;99.90
24091;DHT22;12272;52.426;17.100;2023-04-29T15:28:56;14.60;99.90
24091;DHT22;12272;52.426;17.100;2023-04-29T15:33:59;14.70;99.90
24091;DHT22;12272;52.426;17.100;2023-04-29T15:39:02;14.70;99.90
24091;DHT22;12272;52.426;17.100;2023-04-29T15:44:04;14.70;99.90
24091;DHT22;12272;52.426;17.100;2023-04-29T15:49:07;14.90;99.90
24091;DHT22;12272;52.426;17.100;2023-04-29T15:54:10;14.90;99.90
24091;DHT22;12272;52.426;17.100;2023-04-29T15:59:12;15.00;99.90
24091;DHT22;12272;52.426;17.100;2023-04-29T16:04:17;15.00;99.90
24091;DHT22;12272;52.426;17.100;2023-04-29T16:09:19;15.00;99.90
24091;DHT22;12272;52.426;17.100;2023-04-29T16:14:22;15.40;99.90
24091;DHT22;12272;52.426;17.100;2023-04-29T16:19:25;15.50;99.90
24091;DHT22;12272;52.426;17.100;2023-04-29T16:24:27;15.30;99.90
24091;DHT22;12272;52.426;17.100;2023-04-29T16:29:30;15.00;99.90
24091;DHT22;12272;52.426;17.100;2023-04-29T16:34:32;15.00;99.90
24091;DHT22;12272;52.426;17.100;2023-04-29T16:39:35;14.90;99.90
24091;DHT22;12272;52.426;17.100;2023-04-29T16:44:37;14.70;99.90
24091;DHT22;12272;52.426;17.100;2023-04-29T16:49:40;14.40;99.90
24091;DHT22;12272;52.426;17.100;2023-04-29T16:54:43;14.30;99.90
24091;DHT22;12272;52.426;17.100;2023-04-29T16:59:46;14.40;99.90
24091;DHT22;12272;52.426;17.100;2023-04-29T17:04:48;14.50;99.90
24091;DHT22;12272;52.426;17.100;2023-04-29T17:09:52;14.70;99.90
24091;DHT22;12272;52.426;17.100;2023-04-29T17:14:54;14.50;99.90
24091;DHT22;12272;52.426;17.100;2023-04-29T17:19:58;14.30;99.90
24091;DHT22;12272;52.426;17.100;2023-04-29T17:30:06;13.80;99.90
24091;DHT22;12272;52.426;17.100;2023-04-29T17:35:09;13.80;99.90
24091;DHT22;12272;52.426;17.100;2023-04-29T17:40:13;13.80;99.90
24091;DHT22;12272;52.426;17.100;2023-04-29T17:50:19;13.30;99.90
24091;DHT22;12272;52.426;17.100;2023-04-29T17:55:21;13.10;99.90
24091;DHT22;12272;52.426;17.100;2023-04-29T18:00:24;13.00;99.90
24091;DHT22;12272;52.426;17.100;2023-04-29T18:05:26;12.80;99.90
24091;DHT22;12272;52.426;17.100;2023-04-29T18:10:29;12.70;99.90
24091;DHT22;12272;52.426;17.100;2023-04-29T18:15:31;12.50;99.90
24091;DHT22;12272;52.426;17.100;2023-04-29T18:20:34;12.40;99.90
24091;DHT22;12272;52.426;17.100;2023-04-29T18:25:38;12.20;99.90
24091;DHT22;12272;52.426;17.100;2023-04-29T18:30:41;12.30;99.90
24091;DHT22;12272;52.426;17.100;2023-04-29T18:35:43;12.10;99.90
24091;DHT22;12272;52.426;17.100;2023-04-29T18:40:46;12.10;99.90
24091;DHT22;12272;52.426;17.100;2023-04-29T18:45:49;12.30;99.90
24091;DHT22;12272;52.426;17.100;2023-04-29T18:50:53;12.20;99.90
24091;DHT22;12272;52.426;17.100;2023-04-29T18:55:56;12.30;99.90
24091;DHT22;12272;52.426;17.100;2023-04-29T19:00:58;12.20;99.90
24091;DHT22;12272;52.426;17.100;2023-04-29T19:06:03;12.00;99.90
24091;DHT22;12272;52.426;17.100;2023-04-29T19:11:06;12.00;99.90
24091;DHT22;12272;52.426;17.100;2023-04-29T19:16:09;11.90;99.90
24091;DHT22;12272;52.426;17.100;2023-04-29T19:21:12;11.80;99.90
24091;DHT22;12272;52.426;17.100;2023-04-29T19:26:18;11.60;99.90
24091;DHT22;12272;52.426;17.100;2023-04-29T19:31:20;11.40;99.90
24091;DHT22;12272;52.426;17.100;2023-04-29T19:36:23;11.20;99.90
24091;DHT22;12272;52.426;17.100;2023-04-29T19:41:25;11.20;99.90
24091;DHT22;12272;52.426;17.100;2023-04-29T19:46:28;11.10;99.90
24091;DHT22;12272;52.426;17.100;2023-04-29T19:51:31;11.00;99.90
24091;DHT22;12272;52.426;17.100;2023-04-29T19:56:33;11.00;99.90
24091;DHT22;12272;52.426;17.100;2023-04-29T20:01:36;10.90;99.90
24091;DHT22;12272;52.426;17.100;2023-04-29T20:06:38;10.90;99.90
24091;DHT22;12272;52.426;17.100;2023-04-29T20:11:42;10.80;99.90
24091;DHT22;12272;52.426;17.100;2023-04-29T20:16:44;10.80;99.90
24091;DHT22;12272;52.426;17.100;2023-04-29T20:21:47;10.70;99.90
24091;DHT22;12272;52.426;17.100;2023-04-29T20:26:49;10.50;99.90
24091;DHT22;12272;52.426;17.100;2023-04-29T20:31:52;10.50;99.90
24091;DHT22;12272;52.426;17.100;2023-04-29T20:36:54;10.50;99.90
24091;DHT22;12272;52.426;17.100;2023-04-29T20:41:57;10.40;99.90
24091;DHT22;12272;52.426;17.100;2023-04-29T20:46:59;10.50;99.90
24091;DHT22;12272;52.426;17.100;2023-04-29T20:52:02;10.50;99.90
24091;DHT22;12272;52.426;17.100;2023-04-29T20:57:07;10.40;99.90
24091;DHT22;12272;52.426;17.100;2023-04-29T21:02:10;10.60;99.90
24091;DHT22;12272;52.426;17.100;2023-04-29T21:07:13;10.60;99.90
24091;DHT22;12272;52.426;17.100;2023-04-29T21:12:16;10.50;99.90
24091;DHT22;12272;52.426;17.100;2023-04-29T21:17:18;10.40;99.90
24091;DHT22;12272;52.426;17.100;2023-04-29T21:22:21;10.30;99.90
24091;DHT22;12272;52.426;17.100;2023-04-29T21:27:23;10.40;99.90
24091;DHT22;12272;52.426;17.100;2023-04-29T21:32:26;10.50;99.90
24091;DHT22;12272;52.426;17.100;2023-04-29T21:37:29;10.50;99.90
24091;DHT22;12272;52.426;17.100;2023-04-29T21:42:33;10.50;99.90
24091;DHT22;12272;52.426;17.100;2023-04-29T21:47:36;10.50;99.90
24091;DHT22;12272;52.426;17.100;2023-04-29T21:52:38;10.50;99.90
24091;DHT22;12272;52.426;17.100;2023-04-29T21:57:41;10.30;99.90
24091;DHT22;12272;52.426;17.100;2023-04-29T22:02:46;10.30;99.90
24091;DHT22;12272;52.426;17.100;2023-04-29T22:07:49;10.30;99.90
24091;DHT22;12272;52.426;17.100;2023-04-29T22:12:51;10.30;99.90
24091;DHT22;12272;52.426;17.100;2023-04-29T22:17:54;10.30;99.90
24091;DHT22;12272;52.426;17.100;2023-04-29T22:22:58;10.50;99.90
24091;DHT22;12272;52.426;17.100;2023-04-29T22:28:00;10.40;99.90
24091;DHT22;12272;52.426;17.100;2023-04-29T22:33:03;10.40;99.90
24091;DHT22;12272;52.426;17.100;2023-04-29T22:38:06;10.40;99.90
24091;DHT22;12272;52.426;17.100;2023-04-29T22:43:08;10.40;99.90
24091;DHT22;12272;52.426;17.100;2023-04-29T22:48:11;10.40;99.90
24091;DHT22;12272;52.426;17.100;2023-04-29T22:53:13;10.20;99.90
24091;DHT22;12272;52.426;17.100;2023-04-29T22:58:16;10.10;99.90
24091;DHT22;12272;52.426;17.100;2023-04-29T23:03:19;10.10;99.90
24091;DHT22;12272;52.426;17.100;2023-04-29T23:08:21;10.10;99.90
24091;DHT22;12272;52.426;17.100;2023-04-29T23:13:25;10.10;99.90
24091;DHT22;12272;52.426;17.100;2023-04-29T23:18:28;9.90;99.90
24091;DHT22;12272;52.426;17.100;2023-04-29T23:23:30;10.00;99.90
24091;DHT22;12272;52.426;17.100;2023-04-29T23:28:33;9.90;99.90
24091;DHT22;12272;52.426;17.100;2023-04-29T23:33:35;9.80;99.90
24091;DHT22;12272;52.426;17.100;2023-04-29T23:38:38;9.70;99.90
24091;DHT22;12272;52.426;17.100;2023-04-29T23:43:40;9.60;99.90
24091;DHT22;12272;52.426;17.100;2023-04-29T23:48:44;9.70;99.90
24091;DHT22;12272;52.426;17.100;2023-04-29T23:53:46;9.70;99.90
24091;DHT22;12272;52.426;17.100;2023-04-29T23:58:48;9.80;99.90
